sensor_id;sensor_type;location;lat;lon;timestamp;temperature;humidity
69595;DHT22;56800;52.142;5.364;2022-12-19T00:01:35;1.60;83.40
69595;DHT22;56800;52.142;5.364;2022-12-19T00:04:06;1.60;83.50
69595;DHT22;56800;52.142;5.364;2022-12-19T00:06:36;1.60;83.60
69595;DHT22;56800;52.142;5.364;2022-12-19T00:09:08;1.60;83.40
69595;DHT22;56800;52.142;5.364;2022-12-19T00:11:35;1.60;83.40
69595;DHT22;56800;52.142;5.364;2022-12-19T00:14:02;1.70;83.40
69595;DHT22;56800;52.142;5.364;2022-12-19T00:16:29;1.70;83.50
69595;DHT22;56800;52.142;5.364;2022-12-19T00:18:58;1.70;83.50
69595;DHT22;56800;52.142;5.364;2022-12-19T00:21:31;1.70;83.70
69595;DHT22;56800;52.142;5.364;2022-12-19T00:24:02;1.70;83.70
69595;DHT22;56800;52.142;5.364;2022-12-19T00:26:34;1.70;83.60
69595;DHT22;56800;52.142;5.364;2022-12-19T00:29:06;1.70;83.90
69595;DHT22;56800;52.142;5.364;2022-12-19T00:31:39;1.70;83.80
69595;DHT22;56800;52.142;5.364;2022-12-19T00:34:07;1.70;83.80
69595;DHT22;56800;52.142;5.364;2022-12-19T00:36:34;1.70;83.90
69595;DHT22;56800;52.142;5.364;2022-12-19T00:39:02;1.70;83.80
69595;DHT22;56800;52.142;5.364;2022-12-19T00:41:35;1.80;83.90
69595;DHT22;56800;52.142;5.364;2022-12-19T00:44:10;1.80;83.90
69595;DHT22;56800;52.142;5.364;2022-12-19T00:46:37;1.80;84.00
69595;DHT22;56800;52.142;5.364;2022-12-19T00:49:04;1.90;84.80
69595;DHT22;56800;52.142;5.364;2022-12-19T00:51:33;1.80;83.90
69595;DHT22;56800;52.142;5.364;2022-12-19T00:54:00;1.90;84.30
69595;DHT22;56800;52.142;5.364;2022-12-19T00:56:32;1.90;85.20
69595;DHT22;56800;52.142;5.364;2022-12-19T00:59:03;1.90;84.50
69595;DHT22;56800;52.142;5.364;2022-12-19T01:01:32;1.90;84.50
69595;DHT22;56800;52.142;5.364;2022-12-19T01:04:01;1.90;84.70
69595;DHT22;56800;52.142;5.364;2022-12-19T01:06:48;1.90;84.60
69595;DHT22;56800;52.142;5.364;2022-12-19T01:09:15;2.00;84.80
69595;DHT22;56800;52.142;5.364;2022-12-19T01:11:42;2.00;84.70
69595;DHT22;56800;52.142;5.364;2022-12-19T01:14:27;2.00;84.60
69595;DHT22;56800;52.142;5.364;2022-12-19T01:16:54;2.00;84.70
69595;DHT22;56800;52.142;5.364;2022-12-19T01:19:20;2.00;84.90
69595;DHT22;56800;52.142;5.364;2022-12-19T01:21:47;2.00;85.00
69595;DHT22;56800;52.142;5.364;2022-12-19T01:24:14;2.00;85.00
69595;DHT22;56800;52.142;5.364;2022-12-19T01:26:44;2.00;85.00
69595;DHT22;56800;52.142;5.364;2022-12-19T01:29:11;2.00;85.20
69595;DHT22;56800;52.142;5.364;2022-12-19T01:31:38;2.00;85.30
69595;DHT22;56800;52.142;5.364;2022-12-19T01:34:05;2.00;85.30
69595;DHT22;56800;52.142;5.364;2022-12-19T01:36:31;2.00;85.40
69595;DHT22;56800;52.142;5.364;2022-12-19T01:39:01;2.10;85.50
69595;DHT22;56800;52.142;5.364;2022-12-19T01:41:28;2.10;85.30
69595;DHT22;56800;52.142;5.364;2022-12-19T01:44:00;2.10;85.50
69595;DHT22;56800;52.142;5.364;2022-12-19T01:46:46;2.10;85.70
69595;DHT22;56800;52.142;5.364;2022-12-19T01:49:34;2.10;85.80
69595;DHT22;56800;52.142;5.364;2022-12-19T01:52:05;2.10;85.70
69595;DHT22;56800;52.142;5.364;2022-12-19T01:54:37;2.20;85.60
69595;DHT22;56800;52.142;5.364;2022-12-19T01:57:10;2.20;85.70
69595;DHT22;56800;52.142;5.364;2022-12-19T01:59:48;2.20;85.60
69595;DHT22;56800;52.142;5.364;2022-12-19T02:02:22;2.20;85.60
69595;DHT22;56800;52.142;5.364;2022-12-19T02:04:50;2.20;85.70
69595;DHT22;56800;52.142;5.364;2022-12-19T02:07:19;2.30;85.70
69595;DHT22;56800;52.142;5.364;2022-12-19T02:09:49;2.30;85.90
69595;DHT22;56800;52.142;5.364;2022-12-19T02:12:29;2.30;85.90
69595;DHT22;56800;52.142;5.364;2022-12-19T02:14:57;2.40;85.90
69595;DHT22;56800;52.142;5.364;2022-12-19T02:17:56;2.40;86.00
69595;DHT22;56800;52.142;5.364;2022-12-19T02:23:44;2.50;86.40
69595;DHT22;56800;52.142;5.364;2022-12-19T02:41:00;2.90;87.50
69595;DHT22;56800;52.142;5.364;2022-12-19T02:43:32;2.90;87.20
69595;DHT22;56800;52.142;5.364;2022-12-19T02:46:00;3.00;87.20
69595;DHT22;56800;52.142;5.364;2022-12-19T02:48:28;3.00;87.50
69595;DHT22;56800;52.142;5.364;2022-12-19T02:50:55;3.10;87.60
69595;DHT22;56800;52.142;5.364;2022-12-19T02:53:22;3.10;87.20
69595;DHT22;56800;52.142;5.364;2022-12-19T03:07:16;3.20;87.10
69595;DHT22;56800;52.142;5.364;2022-12-19T03:09:56;3.30;87.00
69595;DHT22;56800;52.142;5.364;2022-12-19T03:12:40;3.30;87.20
69595;DHT22;56800;52.142;5.364;2022-12-19T03:15:11;3.30;87.20
69595;DHT22;56800;52.142;5.364;2022-12-19T03:17:38;3.40;87.20
69595;DHT22;56800;52.142;5.364;2022-12-19T03:20:41;3.40;87.40
69595;DHT22;56800;52.142;5.364;2022-12-19T03:23:01;3.40;87.20
69595;DHT22;56800;52.142;5.364;2022-12-19T03:25:28;3.40;87.30
69595;DHT22;56800;52.142;5.364;2022-12-19T03:27:59;3.50;87.40
69595;DHT22;56800;52.142;5.364;2022-12-19T03:30:28;3.50;87.60
69595;DHT22;56800;52.142;5.364;2022-12-19T03:32:56;3.60;87.80
69595;DHT22;56800;52.142;5.364;2022-12-19T03:35:27;3.60;87.90
69595;DHT22;56800;52.142;5.364;2022-12-19T03:38:00;3.60;87.70
69595;DHT22;56800;52.142;5.364;2022-12-19T03:40:27;3.70;87.50
69595;DHT22;56800;52.142;5.364;2022-12-19T03:43:00;3.70;87.50
69595;DHT22;56800;52.142;5.364;2022-12-19T03:48:29;3.80;88.00
69595;DHT22;56800;52.142;5.364;2022-12-19T03:53:50;3.80;87.90
69595;DHT22;56800;52.142;5.364;2022-12-19T03:56:41;3.90;88.00
69595;DHT22;56800;52.142;5.364;2022-12-19T03:59:29;3.90;88.10
69595;DHT22;56800;52.142;5.364;2022-12-19T04:01:57;3.90;88.00
69595;DHT22;56800;52.142;5.364;2022-12-19T04:04:26;3.90;88.20
69595;DHT22;56800;52.142;5.364;2022-12-19T04:06:54;4.00;88.20
69595;DHT22;56800;52.142;5.364;2022-12-19T04:09:22;4.00;88.20
69595;DHT22;56800;52.142;5.364;2022-12-19T04:11:53;4.00;88.50
69595;DHT22;56800;52.142;5.364;2022-12-19T04:14:27;4.10;88.30
69595;DHT22;56800;52.142;5.364;2022-12-19T04:20:08;4.10;88.30
69595;DHT22;56800;52.142;5.364;2022-12-19T04:22:58;4.20;88.20
69595;DHT22;56800;52.142;5.364;2022-12-19T04:25:31;4.20;88.60
69595;DHT22;56800;52.142;5.364;2022-12-19T04:28:29;4.20;88.30
69595;DHT22;56800;52.142;5.364;2022-12-19T04:30:52;4.20;88.50
69595;DHT22;56800;52.142;5.364;2022-12-19T04:33:19;4.30;88.50
69595;DHT22;56800;52.142;5.364;2022-12-19T04:35:46;4.30;88.30
69595;DHT22;56800;52.142;5.364;2022-12-19T04:38:12;4.30;88.30
69595;DHT22;56800;52.142;5.364;2022-12-19T04:40:39;4.30;88.40
69595;DHT22;56800;52.142;5.364;2022-12-19T04:43:07;4.40;88.60
69595;DHT22;56800;52.142;5.364;2022-12-19T04:45:34;4.40;88.60
69595;DHT22;56800;52.142;5.364;2022-12-19T04:48:02;4.40;88.80
69595;DHT22;56800;52.142;5.364;2022-12-19T04:50:28;4.50;88.70
69595;DHT22;56800;52.142;5.364;2022-12-19T04:52:55;4.50;88.80
69595;DHT22;56800;52.142;5.364;2022-12-19T04:55:22;4.50;88.70
69595;DHT22;56800;52.142;5.364;2022-12-19T04:57:49;4.60;88.90
69595;DHT22;56800;52.142;5.364;2022-12-19T05:00:16;4.60;89.00
69595;DHT22;56800;52.142;5.364;2022-12-19T05:02:42;4.60;89.00
69595;DHT22;56800;52.142;5.364;2022-12-19T05:05:10;4.70;89.00
69595;DHT22;56800;52.142;5.364;2022-12-19T05:07:37;4.70;89.00
69595;DHT22;56800;52.142;5.364;2022-12-19T05:10:04;4.80;88.90
69595;DHT22;56800;52.142;5.364;2022-12-19T05:12:30;4.80;88.90
69595;DHT22;56800;52.142;5.364;2022-12-19T05:14:57;4.80;89.00
69595;DHT22;56800;52.142;5.364;2022-12-19T05:17:24;4.90;89.10
69595;DHT22;56800;52.142;5.364;2022-12-19T05:19:50;4.90;89.40
69595;DHT22;56800;52.142;5.364;2022-12-19T05:22:17;5.00;89.30
69595;DHT22;56800;52.142;5.364;2022-12-19T05:24:44;5.00;89.20
69595;DHT22;56800;52.142;5.364;2022-12-19T05:27:11;5.00;88.90
69595;DHT22;56800;52.142;5.364;2022-12-19T05:29:37;5.10;89.10
69595;DHT22;56800;52.142;5.364;2022-12-19T05:32:04;5.10;89.20
69595;DHT22;56800;52.142;5.364;2022-12-19T05:34:32;5.10;89.10
69595;DHT22;56800;52.142;5.364;2022-12-19T05:36:58;5.20;89.30
69595;DHT22;56800;52.142;5.364;2022-12-19T05:39:25;5.20;89.40
69595;DHT22;56800;52.142;5.364;2022-12-19T05:41:52;5.30;89.20
69595;DHT22;56800;52.142;5.364;2022-12-19T05:44:19;5.30;89.30
69595;DHT22;56800;52.142;5.364;2022-12-19T05:46:46;5.40;89.40
69595;DHT22;56800;52.142;5.364;2022-12-19T05:49:13;5.40;89.30
69595;DHT22;56800;52.142;5.364;2022-12-19T05:51:40;5.40;89.50
69595;DHT22;56800;52.142;5.364;2022-12-19T05:54:06;5.50;89.70
69595;DHT22;56800;52.142;5.364;2022-12-19T05:56:33;5.50;89.40
69595;DHT22;56800;52.142;5.364;2022-12-19T05:59:00;5.60;89.50
69595;DHT22;56800;52.142;5.364;2022-12-19T06:01:26;5.60;89.60
69595;DHT22;56800;52.142;5.364;2022-12-19T06:03:54;5.70;89.80
69595;DHT22;56800;52.142;5.364;2022-12-19T06:06:25;5.70;89.60
69595;DHT22;56800;52.142;5.364;2022-12-19T06:08:53;5.70;89.50
69595;DHT22;56800;52.142;5.364;2022-12-19T06:11:20;5.80;89.80
69595;DHT22;56800;52.142;5.364;2022-12-19T06:13:47;5.80;89.80
69595;DHT22;56800;52.142;5.364;2022-12-19T06:16:16;5.90;89.90
69595;DHT22;56800;52.142;5.364;2022-12-19T06:18:44;6.00;90.10
69595;DHT22;56800;52.142;5.364;2022-12-19T06:21:14;6.00;90.40
69595;DHT22;56800;52.142;5.364;2022-12-19T06:23:41;6.10;90.20
69595;DHT22;56800;52.142;5.364;2022-12-19T06:26:10;6.20;90.20
69595;DHT22;56800;52.142;5.364;2022-12-19T06:28:45;6.30;90.20
69595;DHT22;56800;52.142;5.364;2022-12-19T06:31:12;6.30;90.20
69595;DHT22;56800;52.142;5.364;2022-12-19T06:33:39;6.40;90.20
69595;DHT22;56800;52.142;5.364;2022-12-19T06:36:12;6.40;90.10
69595;DHT22;56800;52.142;5.364;2022-12-19T06:38:39;6.50;90.10
69595;DHT22;56800;52.142;5.364;2022-12-19T06:41:07;6.50;90.10
69595;DHT22;56800;52.142;5.364;2022-12-19T06:43:56;6.50;90.10
69595;DHT22;56800;52.142;5.364;2022-12-19T06:46:23;6.60;90.20
69595;DHT22;56800;52.142;5.364;2022-12-19T06:48:50;6.70;90.40
69595;DHT22;56800;52.142;5.364;2022-12-19T06:51:18;6.70;90.10
69595;DHT22;56800;52.142;5.364;2022-12-19T06:53:45;6.70;90.10
69595;DHT22;56800;52.142;5.364;2022-12-19T06:56:14;6.80;90.10
69595;DHT22;56800;52.142;5.364;2022-12-19T06:58:41;6.80;90.20
69595;DHT22;56800;52.142;5.364;2022-12-19T07:01:18;6.90;90.20
69595;DHT22;56800;52.142;5.364;2022-12-19T07:03:46;6.90;90.20
69595;DHT22;56800;52.142;5.364;2022-12-19T07:06:14;7.00;90.20
69595;DHT22;56800;52.142;5.364;2022-12-19T07:08:41;7.00;90.20
69595;DHT22;56800;52.142;5.364;2022-12-19T07:11:08;7.00;90.10
69595;DHT22;56800;52.142;5.364;2022-12-19T07:13:34;7.10;90.20
69595;DHT22;56800;52.142;5.364;2022-12-19T07:16:03;7.10;90.30
69595;DHT22;56800;52.142;5.364;2022-12-19T07:18:34;7.20;90.30
69595;DHT22;56800;52.142;5.364;2022-12-19T07:21:01;7.20;90.20
69595;DHT22;56800;52.142;5.364;2022-12-19T07:23:28;7.20;90.20
69595;DHT22;56800;52.142;5.364;2022-12-19T07:25:56;7.30;90.30
69595;DHT22;56800;52.142;5.364;2022-12-19T07:28:23;7.30;90.20
69595;DHT22;56800;52.142;5.364;2022-12-19T07:30:49;7.30;90.10
69595;DHT22;56800;52.142;5.364;2022-12-19T07:33:16;7.30;90.10
69595;DHT22;56800;52.142;5.364;2022-12-19T07:35:47;7.40;90.20
69595;DHT22;56800;52.142;5.364;2022-12-19T07:38:14;7.40;90.10
69595;DHT22;56800;52.142;5.364;2022-12-19T07:40:40;7.50;90.10
69595;DHT22;56800;52.142;5.364;2022-12-19T07:43:07;7.50;90.10
69595;DHT22;56800;52.142;5.364;2022-12-19T07:45:36;7.60;90.10
69595;DHT22;56800;52.142;5.364;2022-12-19T07:48:04;7.60;90.00
69595;DHT22;56800;52.142;5.364;2022-12-19T07:50:31;7.60;90.00
69595;DHT22;56800;52.142;5.364;2022-12-19T07:52:58;7.60;90.00
69595;DHT22;56800;52.142;5.364;2022-12-19T07:55:25;7.60;90.00
69595;DHT22;56800;52.142;5.364;2022-12-19T07:57:52;7.60;90.00
69595;DHT22;56800;52.142;5.364;2022-12-19T08:00:20;7.70;90.00
69595;DHT22;56800;52.142;5.364;2022-12-19T08:02:47;7.70;90.10
69595;DHT22;56800;52.142;5.364;2022-12-19T08:05:14;7.70;90.00
69595;DHT22;56800;52.142;5.364;2022-12-19T08:07:41;7.70;90.00
69595;DHT22;56800;52.142;5.364;2022-12-19T08:10:08;7.70;90.00
69595;DHT22;56800;52.142;5.364;2022-12-19T08:12:37;7.80;89.90
69595;DHT22;56800;52.142;5.364;2022-12-19T08:15:04;7.80;90.00
69595;DHT22;56800;52.142;5.364;2022-12-19T08:17:33;7.80;89.80
69595;DHT22;56800;52.142;5.364;2022-12-19T08:20:00;7.80;90.00
69595;DHT22;56800;52.142;5.364;2022-12-19T08:22:28;7.90;90.00
69595;DHT22;56800;52.142;5.364;2022-12-19T08:24:55;7.90;90.00
69595;DHT22;56800;52.142;5.364;2022-12-19T08:27:22;7.90;90.00
69595;DHT22;56800;52.142;5.364;2022-12-19T08:29:49;7.90;90.00
69595;DHT22;56800;52.142;5.364;2022-12-19T08:32:16;8.00;90.00
69595;DHT22;56800;52.142;5.364;2022-12-19T08:34:47;7.90;89.90
69595;DHT22;56800;52.142;5.364;2022-12-19T08:37:14;8.00;89.90
69595;DHT22;56800;52.142;5.364;2022-12-19T08:39:40;8.00;90.00
69595;DHT22;56800;52.142;5.364;2022-12-19T08:42:07;8.00;89.90
69595;DHT22;56800;52.142;5.364;2022-12-19T08:44:34;8.00;89.80
69595;DHT22;56800;52.142;5.364;2022-12-19T08:47:00;8.00;89.80
69595;DHT22;56800;52.142;5.364;2022-12-19T08:49:28;8.10;89.90
69595;DHT22;56800;52.142;5.364;2022-12-19T08:51:54;8.10;89.80
69595;DHT22;56800;52.142;5.364;2022-12-19T08:54:21;8.10;89.90
69595;DHT22;56800;52.142;5.364;2022-12-19T08:56:48;8.10;89.90
69595;DHT22;56800;52.142;5.364;2022-12-19T08:59:15;8.10;89.90
69595;DHT22;56800;52.142;5.364;2022-12-19T09:01:57;8.10;89.70
69595;DHT22;56800;52.142;5.364;2022-12-19T09:04:25;8.10;89.70
69595;DHT22;56800;52.142;5.364;2022-12-19T09:07:12;8.20;89.80
69595;DHT22;56800;52.142;5.364;2022-12-19T09:09:41;8.20;89.70
69595;DHT22;56800;52.142;5.364;2022-12-19T09:12:08;8.20;89.60
69595;DHT22;56800;52.142;5.364;2022-12-19T09:14:35;8.20;89.60
69595;DHT22;56800;52.142;5.364;2022-12-19T09:17:02;8.20;89.50
69595;DHT22;56800;52.142;5.364;2022-12-19T09:19:30;8.20;89.60
69595;DHT22;56800;52.142;5.364;2022-12-19T09:21:57;8.20;89.50
69595;DHT22;56800;52.142;5.364;2022-12-19T09:24:23;8.20;89.50
69595;DHT22;56800;52.142;5.364;2022-12-19T09:26:50;8.20;89.30
69595;DHT22;56800;52.142;5.364;2022-12-19T09:29:17;8.20;89.40
69595;DHT22;56800;52.142;5.364;2022-12-19T09:31:50;8.20;89.40
69595;DHT22;56800;52.142;5.364;2022-12-19T09:34:26;8.30;89.50
69595;DHT22;56800;52.142;5.364;2022-12-19T09:37:05;8.30;89.40
69595;DHT22;56800;52.142;5.364;2022-12-19T09:39:32;8.30;89.40
69595;DHT22;56800;52.142;5.364;2022-12-19T09:47:25;8.30;89.30
69595;DHT22;56800;52.142;5.364;2022-12-19T09:49:53;8.40;89.30
69595;DHT22;56800;52.142;5.364;2022-12-19T09:52:32;8.30;89.20
69595;DHT22;56800;52.142;5.364;2022-12-19T09:55:13;8.40;89.20
69595;DHT22;56800;52.142;5.364;2022-12-19T10:00:18;8.40;89.10
69595;DHT22;56800;52.142;5.364;2022-12-19T10:08:38;8.40;89.30
69595;DHT22;56800;52.142;5.364;2022-12-19T10:17:29;8.50;89.50
69595;DHT22;56800;52.142;5.364;2022-12-19T10:20:27;8.50;89.50
69595;DHT22;56800;52.142;5.364;2022-12-19T10:23:32;8.50;89.50
69595;DHT22;56800;52.142;5.364;2022-12-19T10:26:18;8.60;89.60
69595;DHT22;56800;52.142;5.364;2022-12-19T10:31:56;8.70;89.70
69595;DHT22;56800;52.142;5.364;2022-12-19T10:34:41;8.70;89.70
69595;DHT22;56800;52.142;5.364;2022-12-19T10:37:23;8.80;89.60
69595;DHT22;56800;52.142;5.364;2022-12-19T10:40:05;8.80;89.40
69595;DHT22;56800;52.142;5.364;2022-12-19T10:45:46;8.90;89.30
69595;DHT22;56800;52.142;5.364;2022-12-19T10:48:19;8.90;89.10
69595;DHT22;56800;52.142;5.364;2022-12-19T10:50:56;8.90;89.00
69595;DHT22;56800;52.142;5.364;2022-12-19T10:53:27;8.90;89.00
69595;DHT22;56800;52.142;5.364;2022-12-19T10:56:00;8.90;88.90
69595;DHT22;56800;52.142;5.364;2022-12-19T10:58:34;8.90;88.70
69595;DHT22;56800;52.142;5.364;2022-12-19T11:04:30;9.00;88.70
69595;DHT22;56800;52.142;5.364;2022-12-19T11:09:30;9.00;88.70
69595;DHT22;56800;52.142;5.364;2022-12-19T11:12:11;9.00;88.60
69595;DHT22;56800;52.142;5.364;2022-12-19T11:18:07;9.10;88.50
69595;DHT22;56800;52.142;5.364;2022-12-19T11:21:32;9.10;88.40
69595;DHT22;56800;52.142;5.364;2022-12-19T11:24:49;9.10;88.40
69595;DHT22;56800;52.142;5.364;2022-12-19T11:27:39;9.10;88.30
69595;DHT22;56800;52.142;5.364;2022-12-19T11:30:27;9.10;88.30
69595;DHT22;56800;52.142;5.364;2022-12-19T11:33:17;9.10;88.20
69595;DHT22;56800;52.142;5.364;2022-12-19T11:35:50;9.10;88.20
69595;DHT22;56800;52.142;5.364;2022-12-19T11:38:54;9.10;88.20
69595;DHT22;56800;52.142;5.364;2022-12-19T11:41:41;9.10;88.40
69595;DHT22;56800;52.142;5.364;2022-12-19T11:44:36;9.10;88.40
69595;DHT22;56800;52.142;5.364;2022-12-19T11:47:44;9.10;88.50
69595;DHT22;56800;52.142;5.364;2022-12-19T11:50:19;9.10;88.40
69595;DHT22;56800;52.142;5.364;2022-12-19T11:52:51;9.20;88.40
69595;DHT22;56800;52.142;5.364;2022-12-19T11:55:58;9.10;88.30
69595;DHT22;56800;52.142;5.364;2022-12-19T11:58:27;9.20;88.40
69595;DHT22;56800;52.142;5.364;2022-12-19T12:01:16;9.20;88.40
69595;DHT22;56800;52.142;5.364;2022-12-19T12:04:05;9.20;88.40
69595;DHT22;56800;52.142;5.364;2022-12-19T12:06:41;9.20;88.30
69595;DHT22;56800;52.142;5.364;2022-12-19T12:09:25;9.20;88.50
69595;DHT22;56800;52.142;5.364;2022-12-19T12:12:23;9.20;88.40
69595;DHT22;56800;52.142;5.364;2022-12-19T12:15:26;9.20;88.30
69595;DHT22;56800;52.142;5.364;2022-12-19T12:21:34;9.30;88.20
69595;DHT22;56800;52.142;5.364;2022-12-19T12:24:47;9.30;88.10
69595;DHT22;56800;52.142;5.364;2022-12-19T12:30:44;9.40;88.10
69595;DHT22;56800;52.142;5.364;2022-12-19T12:39:37;9.40;87.60
69595;DHT22;56800;52.142;5.364;2022-12-19T12:44:43;9.40;87.50
69595;DHT22;56800;52.142;5.364;2022-12-19T12:47:19;9.50;87.50
69595;DHT22;56800;52.142;5.364;2022-12-19T12:49:56;9.50;87.40
69595;DHT22;56800;52.142;5.364;2022-12-19T12:55:32;9.50;87.00
69595;DHT22;56800;52.142;5.364;2022-12-19T12:57:59;9.60;86.90
69595;DHT22;56800;52.142;5.364;2022-12-19T13:00:33;9.60;86.80
69595;DHT22;56800;52.142;5.364;2022-12-19T13:06:10;9.70;86.50
69595;DHT22;56800;52.142;5.364;2022-12-19T13:08:47;9.70;86.00
69595;DHT22;56800;52.142;5.364;2022-12-19T13:11:35;9.70;85.90
69595;DHT22;56800;52.142;5.364;2022-12-19T13:17:10;9.80;85.60
69595;DHT22;56800;52.142;5.364;2022-12-19T13:19:39;9.70;85.40
69595;DHT22;56800;52.142;5.364;2022-12-19T13:24:58;9.80;85.20
69595;DHT22;56800;52.142;5.364;2022-12-19T13:27:32;9.80;85.00
69595;DHT22;56800;52.142;5.364;2022-12-19T13:38:22;9.90;84.40
69595;DHT22;56800;52.142;5.364;2022-12-19T13:41:28;9.90;84.20
69595;DHT22;56800;52.142;5.364;2022-12-19T13:44:18;9.90;84.00
69595;DHT22;56800;52.142;5.364;2022-12-19T13:46:46;9.90;83.60
69595;DHT22;56800;52.142;5.364;2022-12-19T13:56:46;10.00;83.60
69595;DHT22;56800;52.142;5.364;2022-12-19T13:59:13;10.00;83.60
69595;DHT22;56800;52.142;5.364;2022-12-19T14:01:40;10.00;83.50
69595;DHT22;56800;52.142;5.364;2022-12-19T14:04:27;10.00;83.40
69595;DHT22;56800;52.142;5.364;2022-12-19T14:07:35;10.00;83.30
69595;DHT22;56800;52.142;5.364;2022-12-19T14:10:13;10.00;83.10
69595;DHT22;56800;52.142;5.364;2022-12-19T14:13:06;10.00;82.90
69595;DHT22;56800;52.142;5.364;2022-12-19T14:16:02;10.00;82.80
69595;DHT22;56800;52.142;5.364;2022-12-19T14:18:32;10.10;82.70
69595;DHT22;56800;52.142;5.364;2022-12-19T14:21:15;10.10;82.70
69595;DHT22;56800;52.142;5.364;2022-12-19T14:24:15;10.10;82.50
69595;DHT22;56800;52.142;5.364;2022-12-19T14:26:44;10.00;82.50
69595;DHT22;56800;52.142;5.364;2022-12-19T14:29:48;10.00;82.50
69595;DHT22;56800;52.142;5.364;2022-12-19T14:32:37;10.00;82.40
69595;DHT22;56800;52.142;5.364;2022-12-19T14:35:30;10.00;82.40
69595;DHT22;56800;52.142;5.364;2022-12-19T14:38:23;10.00;82.30
69595;DHT22;56800;52.142;5.364;2022-12-19T14:44:14;10.00;82.00
69595;DHT22;56800;52.142;5.364;2022-12-19T14:47:11;10.10;82.00
69595;DHT22;56800;52.142;5.364;2022-12-19T14:49:57;10.10;81.90
69595;DHT22;56800;52.142;5.364;2022-12-19T14:52:44;10.10;81.80
69595;DHT22;56800;52.142;5.364;2022-12-19T14:55:39;10.00;81.50
69595;DHT22;56800;52.142;5.364;2022-12-19T14:58:32;10.10;81.50
69595;DHT22;56800;52.142;5.364;2022-12-19T15:01:21;10.10;81.50
69595;DHT22;56800;52.142;5.364;2022-12-19T15:03:55;10.00;81.20
69595;DHT22;56800;52.142;5.364;2022-12-19T15:06:44;10.00;81.20
69595;DHT22;56800;52.142;5.364;2022-12-19T15:09:50;10.10;81.10
69595;DHT22;56800;52.142;5.364;2022-12-19T15:18:35;10.10;81.00
69595;DHT22;56800;52.142;5.364;2022-12-19T15:21:06;10.10;80.80
69595;DHT22;56800;52.142;5.364;2022-12-19T15:23:34;10.10;80.80
69595;DHT22;56800;52.142;5.364;2022-12-19T15:26:04;10.10;80.60
69595;DHT22;56800;52.142;5.364;2022-12-19T15:28:48;10.10;80.70
69595;DHT22;56800;52.142;5.364;2022-12-19T15:31:33;10.10;80.70
69595;DHT22;56800;52.142;5.364;2022-12-19T15:34:31;10.10;80.50
69595;DHT22;56800;52.142;5.364;2022-12-19T15:37:08;10.10;80.50
69595;DHT22;56800;52.142;5.364;2022-12-19T15:39:36;10.10;80.30
69595;DHT22;56800;52.142;5.364;2022-12-19T15:42:03;10.00;80.40
69595;DHT22;56800;52.142;5.364;2022-12-19T15:44:35;10.00;80.40
69595;DHT22;56800;52.142;5.364;2022-12-19T15:47:05;10.00;80.40
69595;DHT22;56800;52.142;5.364;2022-12-19T15:49:32;10.10;80.30
69595;DHT22;56800;52.142;5.364;2022-12-19T15:52:00;10.10;80.40
69595;DHT22;56800;52.142;5.364;2022-12-19T15:54:28;10.10;80.30
69595;DHT22;56800;52.142;5.364;2022-12-19T15:57:43;10.00;80.30
69595;DHT22;56800;52.142;5.364;2022-12-19T16:00:20;10.00;80.40
69595;DHT22;56800;52.142;5.364;2022-12-19T16:02:53;10.00;80.40
69595;DHT22;56800;52.142;5.364;2022-12-19T16:05:39;10.00;80.60
69595;DHT22;56800;52.142;5.364;2022-12-19T16:08:11;10.00;80.60
69595;DHT22;56800;52.142;5.364;2022-12-19T16:10:39;10.00;80.70
69595;DHT22;56800;52.142;5.364;2022-12-19T16:13:17;10.00;80.60
69595;DHT22;56800;52.142;5.364;2022-12-19T16:15:45;10.00;80.60
69595;DHT22;56800;52.142;5.364;2022-12-19T16:18:13;10.00;80.70
69595;DHT22;56800;52.142;5.364;2022-12-19T16:20:41;9.90;80.60
69595;DHT22;56800;52.142;5.364;2022-12-19T16:23:08;9.90;80.60
69595;DHT22;56800;52.142;5.364;2022-12-19T16:25:40;9.90;80.50
69595;DHT22;56800;52.142;5.364;2022-12-19T16:28:35;9.90;80.50
69595;DHT22;56800;52.142;5.364;2022-12-19T16:31:13;9.90;80.50
69595;DHT22;56800;52.142;5.364;2022-12-19T16:33:40;9.90;80.50
69595;DHT22;56800;52.142;5.364;2022-12-19T16:36:08;9.90;80.40
69595;DHT22;56800;52.142;5.364;2022-12-19T16:38:35;9.90;80.40
69595;DHT22;56800;52.142;5.364;2022-12-19T16:41:02;9.90;80.40
69595;DHT22;56800;52.142;5.364;2022-12-19T16:43:32;9.90;80.40
69595;DHT22;56800;52.142;5.364;2022-12-19T16:46:03;9.90;80.40
69595;DHT22;56800;52.142;5.364;2022-12-19T16:48:31;10.00;80.40
69595;DHT22;56800;52.142;5.364;2022-12-19T16:51:01;10.00;80.40
69595;DHT22;56800;52.142;5.364;2022-12-19T16:53:28;10.00;81.20
69595;DHT22;56800;52.142;5.364;2022-12-19T16:55:55;10.00;80.30
69595;DHT22;56800;52.142;5.364;2022-12-19T16:58:24;10.00;80.30
69595;DHT22;56800;52.142;5.364;2022-12-19T17:00:52;10.00;80.10
69595;DHT22;56800;52.142;5.364;2022-12-19T17:05:56;10.10;80.00
69595;DHT22;56800;52.142;5.364;2022-12-19T17:08:23;10.10;79.90
69595;DHT22;56800;52.142;5.364;2022-12-19T17:10:51;10.10;79.90
69595;DHT22;56800;52.142;5.364;2022-12-19T17:13:18;10.10;79.90
69595;DHT22;56800;52.142;5.364;2022-12-19T17:15:47;10.10;79.90
69595;DHT22;56800;52.142;5.364;2022-12-19T17:18:34;10.10;79.80
69595;DHT22;56800;52.142;5.364;2022-12-19T17:21:01;10.10;79.80
69595;DHT22;56800;52.142;5.364;2022-12-19T17:23:29;10.10;79.70
69595;DHT22;56800;52.142;5.364;2022-12-19T17:25:58;10.10;79.70
69595;DHT22;56800;52.142;5.364;2022-12-19T17:28:27;10.10;79.60
69595;DHT22;56800;52.142;5.364;2022-12-19T17:30:56;10.10;79.40
69595;DHT22;56800;52.142;5.364;2022-12-19T17:33:42;10.10;79.30
69595;DHT22;56800;52.142;5.364;2022-12-19T17:36:10;10.10;79.30
69595;DHT22;56800;52.142;5.364;2022-12-19T17:38:38;10.10;79.30
69595;DHT22;56800;52.142;5.364;2022-12-19T17:41:05;10.10;79.30
69595;DHT22;56800;52.142;5.364;2022-12-19T17:43:31;10.10;79.20
69595;DHT22;56800;52.142;5.364;2022-12-19T17:45:58;10.10;79.20
69595;DHT22;56800;52.142;5.364;2022-12-19T17:48:30;10.10;79.20
69595;DHT22;56800;52.142;5.364;2022-12-19T17:50:58;10.10;79.20
69595;DHT22;56800;52.142;5.364;2022-12-19T17:53:25;10.00;79.10
69595;DHT22;56800;52.142;5.364;2022-12-19T17:55:52;10.00;79.00
69595;DHT22;56800;52.142;5.364;2022-12-19T17:58:19;10.00;79.10
69595;DHT22;56800;52.142;5.364;2022-12-19T18:00:48;9.90;79.00
69595;DHT22;56800;52.142;5.364;2022-12-19T18:03:22;9.90;79.00
69595;DHT22;56800;52.142;5.364;2022-12-19T18:05:51;9.90;78.90
69595;DHT22;56800;52.142;5.364;2022-12-19T18:08:25;9.90;79.00
69595;DHT22;56800;52.142;5.364;2022-12-19T18:10:54;9.90;79.00
69595;DHT22;56800;52.142;5.364;2022-12-19T18:13:23;9.90;78.80
69595;DHT22;56800;52.142;5.364;2022-12-19T18:15:50;9.90;78.90
69595;DHT22;56800;52.142;5.364;2022-12-19T18:18:24;9.90;78.80
69595;DHT22;56800;52.142;5.364;2022-12-19T18:20:52;9.90;78.80
69595;DHT22;56800;52.142;5.364;2022-12-19T18:23:21;9.90;78.90
69595;DHT22;56800;52.142;5.364;2022-12-19T18:25:48;9.80;78.80
69595;DHT22;56800;52.142;5.364;2022-12-19T18:28:18;9.80;78.90
69595;DHT22;56800;52.142;5.364;2022-12-19T18:30:46;9.70;79.20